Time;durP1;ratioP1;P1;durP2;ratioP2;P2;SDS_P1;SDS_P2;PMS_P1;PMS_P2;Temp;Humidity;BMP_temperature;BMP_pressure;BME280_temperature;BME280_humidity;BME280_pressure;Samples;Min_cycle;Max_cycle;Signal;HPM_P1;HPM_P2
2023/07/28 00:00:43;;;;;;;0.40;0.20;;;;;;;20.45;45.74;95349.59;5111690;28;20493;-61
2023/07/28 00:03:11;;;;;;;2.73;0.37;;;;;;;20.13;45.53;95360.00;5111078;28;20467;-60
2023/07/28 00:05:39;;;;;;;0.50;0.30;;;;;;;20.15;45.63;95356.97;5111459;28;20440;-61
2023/07/28 00:08:08;;;;;;;0.53;0.40;;;;;;;20.26;46.37;95350.88;5111562;28;20520;-61
2023/07/28 00:10:42;;;;;;;0.50;0.40;;;;;;;20.38;45.15;95349.34;5111771;28;20470;-61
2023/07/28 00:13:10;;;;;;;0.40;0.30;;;;;;;20.13;45.27;95356.50;5111345;28;20453;-61
2023/07/28 00:15:39;;;;;;;0.40;0.30;;;;;;;20.50;45.10;95352.09;5111250;28;20431;-62
2023/07/28 00:18:07;;;;;;;0.40;0.30;;;;;;;20.63;45.50;95351.03;5111258;28;20981;-62
2023/07/28 00:20:35;;;;;;;0.50;0.30;;;;;;;20.98;46.05;95357.63;5111531;28;20435;-62
2023/07/28 00:23:04;;;;;;;0.77;0.70;;;;;;;20.43;44.70;95351.84;5111620;28;20435;-61
2023/07/28 00:25:32;;;;;;;0.60;0.50;;;;;;;19.70;43.22;95359.47;5111436;28;20444;-61
2023/07/28 00:28:02;;;;;;;0.60;0.60;;;;;;;19.26;46.95;95359.97;5111447;28;20447;-61
2023/07/28 00:30:31;;;;;;;0.40;0.30;;;;;;;20.04;44.29;95361.94;5110851;28;20470;-61
2023/07/28 00:32:59;;;;;;;0.50;0.50;;;;;;;20.25;46.61;95360.06;5111287;28;20436;-61
2023/07/28 00:35:28;;;;;;;0.40;0.30;;;;;;;20.39;46.84;95359.78;5111374;28;20519;-62
2023/07/28 00:37:56;;;;;;;0.40;0.30;;;;;;;20.41;46.82;95359.47;5111754;28;20466;-61
2023/07/28 00:40:24;;;;;;;0.50;0.30;;;;;;;20.35;46.82;95363.47;5097621;28;20436;-62
2023/07/28 00:42:53;;;;;;;0.40;0.30;;;;;;;20.46;46.62;95367.34;5111095;28;20472;-62
2023/07/28 00:45:23;;;;;;;0.50;0.30;;;;;;;20.40;46.33;95372.13;5112582;28;20532;-61
2023/07/28 00:47:51;;;;;;;0.50;0.30;;;;;;;20.52;46.64;95379.47;5115006;28;20918;-62
2023/07/28 00:50:20;;;;;;;0.47;0.30;;;;;;;20.55;47.11;95374.22;5114310;28;20440;-62
2023/07/28 00:52:49;;;;;;;0.40;0.30;;;;;;;20.53;46.80;95381.84;5115017;28;20436;-62
2023/07/28 00:55:17;;;;;;;0.60;0.60;;;;;;;20.28;46.95;95374.78;5114896;28;20462;-62
2023/07/28 00:57:46;;;;;;;0.50;0.30;;;;;;;19.94;45.47;95378.47;5114737;28;21013;-62
2023/07/28 01:00:14;;;;;;;0.50;0.40;;;;;;;20.11;46.08;95378.34;5114172;28;20530;-62
2023/07/28 01:02:44;;;;;;;0.40;0.20;;;;;;;20.39;48.14;95385.94;5115106;28;20468;-63
2023/07/28 01:05:13;;;;;;;0.47;0.30;;;;;;;20.34;47.50;95381.53;5114474;28;20475;-62
2023/07/28 01:07:48;;;;;;;0.43;0.30;;;;;;;20.23;47.13;95388.44;5114263;28;20527;-62
2023/07/28 01:10:23;;;;;;;0.40;0.30;;;;;;;20.08;48.57;95387.09;5114914;28;20878;-63
2023/07/28 01:12:51;;;;;;;0.60;0.50;;;;;;;20.24;47.24;95382.72;5114645;28;20817;-64
2023/07/28 01:15:20;;;;;;;0.80;0.67;;;;;;;20.38;46.95;95373.59;5114470;28;20863;-64
2023/07/28 01:17:50;;;;;;;0.67;0.60;;;;;;;20.63;47.07;95372.56;5113873;28;20506;-64
2023/07/28 01:20:19;;;;;;;2.50;0.30;;;;;;;20.36;47.40;95386.59;5114219;28;20471;-63
2023/07/28 01:23:02;;;;;;;0.87;0.50;;;;;;;20.27;47.05;95378.56;5113842;28;20493;-63
2023/07/28 01:25:44;;;;;;;0.60;0.30;;;;;;;20.18;47.56;95383.22;5113806;28;21035;-63
2023/07/28 01:28:14;;;;;;;0.90;0.40;;;;;;;20.05;46.82;95386.94;5114527;28;20478;-64
2023/07/28 01:30:43;;;;;;;0.50;0.30;;;;;;;20.26;47.95;95375.09;5113909;28;20432;-64
2023/07/28 01:33:12;;;;;;;0.40;0.20;;;;;;;20.12;44.44;95374.53;5114356;28;20432;-64
2023/07/28 01:35:40;;;;;;;0.40;0.30;;;;;;;19.98;48.45;95384.00;5113542;28;20431;-64
2023/07/28 01:38:08;;;;;;;0.40;0.30;;;;;;;20.36;47.06;95381.22;5114063;28;20444;-64
2023/07/28 01:40:37;;;;;;;0.50;0.30;;;;;;;20.21;44.90;95380.63;5113702;28;20463;-64
2023/07/28 01:43:05;;;;;;;0.40;0.30;;;;;;;20.30;47.97;95380.63;5114004;28;20443;-65
2023/07/28 01:45:35;;;;;;;0.40;0.30;;;;;;;19.94;47.36;95362.31;5113574;28;20514;-64
2023/07/28 01:48:03;;;;;;;0.40;0.20;;;;;;;19.77;47.96;95370.50;5113731;28;20467;-65
2023/07/28 01:50:32;;;;;;;0.70;0.40;;;;;;;19.58;47.52;95378.22;5113233;28;20440;-65
2023/07/28 01:53:00;;;;;;;0.60;0.33;;;;;;;19.49;47.35;95374.75;5114099;28;20435;-65
2023/07/28 01:55:29;;;;;;;0.50;0.30;;;;;;;19.68;47.86;95383.22;5113964;28;20523;-65
2023/07/28 01:57:58;;;;;;;0.50;0.43;;;;;;;19.58;48.71;95394.34;5113740;28;20471;-65
2023/07/28 02:00:27;;;;;;;0.40;0.20;;;;;;;19.67;46.95;95389.69;5101001;28;20439;-65
2023/07/28 02:02:58;;;;;;;0.60;0.30;;;;;;;19.75;49.16;95374.63;5113277;28;20451;-65
2023/07/28 02:05:27;;;;;;;0.40;0.30;;;;;;;19.62;48.28;95382.63;5113556;28;20475;-66
2023/07/28 02:07:55;;;;;;;0.73;0.40;;;;;;;18.96;47.52;95275.88;5112792;28;20436;-66
2023/07/28 02:10:24;;;;;;;0.60;0.40;;;;;;;19.72;48.86;95392.22;5113277;28;20526;-67
2023/07/28 02:12:52;;;;;;;0.47;0.30;;;;;;;19.89;45.10;95378.66;5113072;28;20444;-68
2023/07/28 02:15:21;;;;;;;0.40;0.30;;;;;;;19.71;46.79;95377.19;5113030;28;20986;-68
2023/07/28 02:17:49;;;;;;;0.47;0.37;;;;;;;19.58;48.91;95335.97;5112895;28;20921;-68
2023/07/28 02:20:19;;;;;;;0.50;0.40;;;;;;;19.70;47.93;95383.69;5113268;28;20466;-68
2023/07/28 02:22:47;;;;;;;0.70;0.50;;;;;;;19.50;47.61;95393.28;5113091;28;20990;-69
2023/07/28 02:25:15;;;;;;;0.40;0.20;;;;;;;19.65;47.70;95400.00;5112894;28;20497;-69
2023/07/28 02:27:44;;;;;;;1.30;0.43;;;;;;;19.61;47.83;95415.97;5112912;28;20456;-69
2023/07/28 02:30:12;;;;;;;0.50;0.30;;;;;;;19.10;46.48;95429.56;5113371;28;20500;-69
2023/07/28 02:32:40;;;;;;;0.40;0.30;;;;;;;18.05;49.45;95420.25;5112914;28;20435;-69
2023/07/28 02:35:10;;;;;;;0.50;0.40;;;;;;;17.94;52.02;95424.34;5113077;28;20505;-69
2023/07/28 02:37:40;;;;;;;0.50;0.40;;;;;;;17.73;50.74;95419.56;5112889;28;20439;-68
2023/07/28 02:40:09;;;;;;;0.60;0.40;;;;;;;18.16;52.14;95416.97;5112585;28;20444;-68
2023/07/28 02:42:38;;;;;;;0.70;0.50;;;;;;;17.95;52.51;95433.97;5112801;28;20440;-68
2023/07/28 02:45:07;;;;;;;0.40;0.30;;;;;;;18.53;52.97;95426.34;5112726;28;20506;-68
2023/07/28 02:47:35;;;;;;;0.50;0.40;;;;;;;19.06;51.79;95427.84;5106582;28;21027;-68
2023/07/28 02:50:04;;;;;;;0.50;0.40;;;;;;;19.41;51.47;95426.66;5107403;28;20446;-68
2023/07/28 02:52:33;;;;;;;0.40;0.30;;;;;;;19.73;51.00;95441.41;5113620;28;20823;-68
2023/07/28 02:55:02;;;;;;;0.47;0.30;;;;;;;19.40;50.80;95451.97;5114327;28;20448;-66
2023/07/28 02:57:30;;;;;;;0.40;0.30;;;;;;;18.83;51.10;95425.34;5112565;28;20983;-67
2023/07/28 02:59:59;;;;;;;0.60;0.30;;;;;;;18.77;51.28;95447.34;5112344;28;20440;-66
2023/07/28 03:02:27;;;;;;;0.50;0.40;;;;;;;18.70;52.23;95450.47;5112896;28;20448;-66
2023/07/28 03:04:56;;;;;;;0.40;0.30;;;;;;;18.51;53.33;95452.72;5112482;28;20544;-66
2023/07/28 03:07:24;;;;;;;0.60;0.50;;;;;;;18.20;52.56;95450.13;5112374;28;20479;-65
2023/07/28 03:09:52;;;;;;;0.40;0.30;;;;;;;17.94;52.74;95456.50;5112004;28;20480;-66
2023/07/28 03:12:22;;;;;;;0.47;0.30;;;;;;;17.99;51.75;95434.91;5112224;28;20501;-66
2023/07/28 03:14:50;;;;;;;0.63;0.57;;;;;;;18.25;51.95;95447.28;5111949;28;20525;-66
2023/07/28 03:17:19;;;;;;;0.60;0.53;;;;;;;18.39;53.08;95449.84;5111678;28;20444;-62
2023/07/28 03:19:47;;;;;;;1.27;0.60;;;;;;;18.16;53.15;95459.13;5112252;28;20458;-66
2023/07/28 03:22:15;;;;;;;0.40;0.23;;;;;;;18.19;53.17;95453.88;5111798;28;20435;-66
2023/07/28 03:24:46;;;;;;;0.50;0.30;;;;;;;18.06;52.97;95456.72;5111624;28;21053;-66
2023/07/28 03:27:14;;;;;;;0.40;0.30;;;;;;;17.76;52.89;95453.78;5112092;28;20493;-65
2023/07/28 03:29:44;;;;;;;1.03;0.60;;;;;;;18.32;53.00;95457.53;5111916;28;20448;-65
2023/07/28 03:32:12;;;;;;;1.03;0.80;;;;;;;18.32;51.91;95457.53;5112074;28;20440;-65
2023/07/28 03:34:41;;;;;;;0.40;0.20;;;;;;;18.21;51.70;95470.50;5112003;28;21030;-64
2023/07/28 03:37:09;;;;;;;0.50;0.30;;;;;;;18.42;52.92;95467.19;5111238;28;20968;-64
2023/07/28 03:39:38;;;;;;;0.90;0.50;;;;;;;18.29;50.23;95458.19;5111561;28;20944;-64
2023/07/28 03:42:06;;;;;;;0.73;0.73;;;;;;;17.88;52.84;95466.63;5111160;28;20428;-64
2023/07/28 03:44:37;;;;;;;0.50;0.37;;;;;;;17.71;50.92;95472.69;5111738;28;20450;-65
2023/07/28 03:47:07;;;;;;;0.47;0.37;;;;;;;17.87;50.26;95466.91;5111121;28;20487;-69
2023/07/28 03:49:36;;;;;;;0.50;0.30;;;;;;;17.70;50.90;95471.13;5111537;28;20496;-69
2023/07/28 03:52:04;;;;;;;0.50;0.30;;;;;;;17.47;50.66;95472.25;5111924;28;20436;-59
2023/07/28 03:54:33;;;;;;;0.50;0.30;;;;;;;17.42;51.03;95472.41;5111474;28;21002;-59
2023/07/28 03:57:01;;;;;;;0.60;0.50;;;;;;;17.48;50.79;95476.50;5111453;28;20956;-59
2023/07/28 03:59:29;;;;;;;0.47;0.40;;;;;;;17.44;50.81;95482.78;5111728;28;20468;-58
2023/07/28 04:01:58;;;;;;;0.40;0.30;;;;;;;17.30;50.29;95474.88;5111188;28;20432;-59
2023/07/28 04:04:28;;;;;;;0.40;0.20;;;;;;;17.39;50.46;95481.03;5098940;28;20469;-58
2023/07/28 04:06:56;;;;;;;0.40;0.30;;;;;;;17.32;51.23;95478.03;5085671;28;20474;-58
2023/07/28 04:09:25;;;;;;;0.40;0.30;;;;;;;17.46;50.54;95481.38;5111476;28;20440;-58
2023/07/28 04:11:53;;;;;;;0.57;0.57;;;;;;;17.37;50.58;95491.28;5111434;28;20432;-58
2023/07/28 04:14:21;;;;;;;0.40;0.30;;;;;;;17.36;51.12;95478.97;5110655;28;20431;-59
2023/07/28 04:16:50;;;;;;;0.40;0.30;;;;;;;17.26;51.29;95483.78;5111159;28;20492;-58
2023/07/28 04:19:18;;;;;;;0.40;0.30;;;;;;;17.42;51.74;95493.03;5111889;28;20941;-58
2023/07/28 04:21:48;;;;;;;0.50;0.30;;;;;;;17.27;52.21;95488.88;5115356;28;20847;-58
2023/07/28 04:24:16;;;;;;;0.40;0.30;;;;;;;17.34;52.18;95497.25;5114959;28;20866;-57
2023/07/28 04:26:48;;;;;;;0.40;0.27;;;;;;;17.46;51.92;95502.81;5115562;28;20478;-59
2023/07/28 04:29:17;;;;;;;0.40;0.30;;;;;;;17.39;52.35;95510.50;5115236;28;20511;-60
2023/07/28 04:31:45;;;;;;;0.50;0.30;;;;;;;17.51;51.56;95507.25;5115794;28;20443;-60
2023/07/28 04:34:14;;;;;;;0.40;0.30;;;;;;;17.46;52.02;95513.53;5114762;28;20463;-59
2023/07/28 04:36:42;;;;;;;0.40;0.30;;;;;;;17.72;50.25;95514.50;5115597;28;20543;-58
2023/07/28 04:39:12;;;;;;;0.40;0.30;;;;;;;17.59;50.70;95515.38;5114833;28;20436;-60
2023/07/28 04:41:40;;;;;;;0.40;0.30;;;;;;;17.52;51.27;95523.06;5115485;28;20501;-60
2023/07/28 04:44:09;;;;;;;0.40;0.30;;;;;;;17.76;50.02;95522.69;5115088;28;20451;-59
2023/07/28 04:46:37;;;;;;;0.40;0.30;;;;;;;17.93;49.21;95527.34;5114410;28;20881;-59
2023/07/28 04:49:05;;;;;;;0.40;0.20;;;;;;;17.88;49.67;95517.56;5114897;28;20440;-60
2023/07/28 04:51:34;;;;;;;0.50;0.30;;;;;;;18.00;49.02;95525.81;5114213;28;20436;-60
2023/07/28 04:54:02;;;;;;;0.40;0.30;;;;;;;17.95;49.72;95525.94;5114809;28;20443;-62
2023/07/28 04:56:31;;;;;;;0.40;0.30;;;;;;;17.90;49.45;95522.59;5114249;27;20496;-60
2023/07/28 04:59:00;;;;;;;0.40;0.30;;;;;;;18.10;48.70;95525.53;5114645;28;20436;-62
2023/07/28 05:01:29;;;;;;;0.40;0.20;;;;;;;17.93;48.00;95524.69;5113996;27;20439;-61
2023/07/28 05:03:57;;;;;;;0.50;0.30;;;;;;;17.96;49.94;95518.69;5114678;28;20432;-62
2023/07/28 05:06:26;;;;;;;0.60;0.40;;;;;;;17.69;51.08;95525.03;5114491;28;20485;-61
2023/07/28 05:08:54;;;;;;;0.60;0.40;;;;;;;17.78;51.29;95520.53;5114610;28;20488;-62
2023/07/28 05:11:22;;;;;;;3.40;0.63;;;;;;;18.39;49.51;95523.06;5114204;28;20440;-62
2023/07/28 05:13:52;;;;;;;0.40;0.30;;;;;;;18.25;49.21;95518.94;5114786;28;20464;-65
2023/07/28 05:16:20;;;;;;;0.50;0.30;;;;;;;18.31;49.76;95521.16;5114299;28;20447;-66
2023/07/28 05:18:49;;;;;;;0.60;0.40;;;;;;;19.01;56.04;95510.19;5113502;27;20443;-59
2023/07/28 05:21:17;;;;;;;0.50;0.30;;;;;;;18.97;55.59;95503.84;5114306;28;20511;-59
2023/07/28 05:23:45;;;;;;;2.00;1.43;;;;;;;19.09;49.88;95511.28;5114459;28;20648;-61
2023/07/28 05:26:14;;;;;;;0.50;0.30;;;;;;;19.34;48.63;95510.47;5114122;28;20464;-60
2023/07/28 05:28:42;;;;;;;0.67;0.63;;;;;;;18.68;49.14;95511.75;5114014;28;20444;-61
2023/07/28 05:31:13;;;;;;;0.50;0.30;;;;;;;18.75;52.09;95501.34;5100403;28;20439;-62
2023/07/28 05:33:42;;;;;;;0.53;0.50;;;;;;;18.77;50.71;95504.50;5114020;28;20522;-63
2023/07/28 05:36:10;;;;;;;0.57;0.53;;;;;;;19.26;49.56;95505.09;5114203;28;20479;-64
2023/07/28 05:38:38;;;;;;;0.40;0.30;;;;;;;19.75;51.91;95515.28;5113651;28;20444;-65
2023/07/28 05:41:07;;;;;;;0.60;0.57;;;;;;;19.05;48.34;95504.19;5113776;28;20981;-64
2023/07/28 05:43:35;;;;;;;0.50;0.30;;;;;;;19.33;50.72;95508.06;5113553;28;20439;-64
2023/07/28 05:46:03;;;;;;;0.50;0.30;;;;;;;18.82;49.29;95509.72;5113741;28;20435;-65
2023/07/28 05:48:33;;;;;;;0.73;0.70;;;;;;;18.78;49.43;95510.66;5113317;28;20480;-66
2023/07/28 05:51:02;;;;;;;1.07;0.47;;;;;;;18.49;52.25;95507.81;5113612;28;20443;-66
2023/07/28 05:53:30;;;;;;;0.50;0.40;;;;;;;19.73;52.42;95509.44;5113699;28;20436;-67
2023/07/28 05:55:58;;;;;;;0.83;0.40;;;;;;;20.03;48.23;95511.06;5113521;28;20468;-67
2023/07/28 05:58:27;;;;;;;0.60;0.33;;;;;;;20.09;49.68;95506.25;5122116;28;20443;-67
2023/07/28 06:00:55;;;;;;;0.50;0.30;;;;;;;20.31;49.40;95505.25;5113382;28;20443;-67
2023/07/28 06:03:23;;;;;;;0.57;0.57;;;;;;;20.81;48.69;95514.06;5113652;28;20436;-66
2023/07/28 06:05:54;;;;;;;0.80;0.80;;;;;;;20.84;49.08;95505.34;5113886;28;20439;-66
2023/07/28 06:08:22;;;;;;;3.80;0.57;;;;;;;19.65;49.18;95491.44;5113363;28;20467;-66
2023/07/28 06:10:50;;;;;;;0.57;0.40;;;;;;;19.84;49.82;95507.97;5113493;28;20432;-65
2023/07/28 06:13:19;;;;;;;0.60;0.50;;;;;;;20.63;48.77;95502.66;5086901;28;20486;-65
2023/07/28 06:15:48;;;;;;;1.27;0.80;;;;;;;20.39;48.60;95507.09;5113380;28;20508;-63
2023/07/28 06:18:16;;;;;;;0.50;0.30;;;;;;;20.90;49.03;95506.72;5113284;28;20522;-64
2023/07/28 06:20:45;;;;;;;0.50;0.40;;;;;;;20.94;48.24;95506.84;5112620;28;20530;-63
2023/07/28 06:23:15;;;;;;;0.50;0.50;;;;;;;20.95;48.44;95497.66;5112716;28;20439;-62
2023/07/28 06:25:44;;;;;;;0.80;0.43;;;;;;;21.66;45.85;95492.84;5112480;28;20440;-62
2023/07/28 06:28:12;;;;;;;0.60;0.40;;;;;;;21.29;48.15;95495.47;5113371;28;20533;-60
2023/07/28 06:30:41;;;;;;;0.80;0.80;;;;;;;21.36;47.41;95498.41;5112705;28;20447;-60
2023/07/28 06:33:10;;;;;;;0.73;0.40;;;;;;;22.12;45.66;95433.06;5113066;28;20432;-59
2023/07/28 06:35:38;;;;;;;0.50;0.37;;;;;;;23.15;43.99;95488.22;5112495;27;20436;-59
2023/07/28 06:38:07;;;;;;;0.60;0.40;;;;;;;22.67;43.84;95492.66;5112789;28;20496;-58
2023/07/28 06:40:37;;;;;;;0.63;0.63;;;;;;;22.79;43.49;95486.44;5112734;28;20443;-58
2023/07/28 06:43:07;;;;;;;0.60;0.40;;;;;;;22.29;44.55;95488.75;5112067;28;20440;-58
2023/07/28 06:45:35;;;;;;;5.70;0.33;;;;;;;23.05;43.64;95491.41;5111692;28;20493;-58
2023/07/28 06:48:04;;;;;;;0.60;0.50;;;;;;;23.33;42.77;95484.06;5112379;28;20491;-58
2023/07/28 06:50:33;;;;;;;0.60;0.40;;;;;;;23.06;41.70;95487.59;5112090;28;20440;-58
2023/07/28 06:53:01;;;;;;;1.70;0.50;;;;;;;23.62;41.32;95480.25;5112458;28;20856;-57
2023/07/28 06:55:29;;;;;;;0.63;0.63;;;;;;;23.41;40.79;95482.38;5098945;28;20519;-56
2023/07/28 06:57:59;;;;;;;6.37;0.90;;;;;;;23.06;40.47;95479.47;5112416;28;20875;-57
2023/07/28 07:00:28;;;;;;;0.40;0.30;;;;;;;22.95;41.45;95481.09;5112596;28;20451;-57
2023/07/28 07:02:56;;;;;;;0.40;0.30;;;;;;;23.98;40.99;95480.75;5112066;28;20432;-57
2023/07/28 07:05:25;;;;;;;0.40;0.30;;;;;;;23.95;39.55;95462.53;5111929;28;20440;-56
2023/07/28 07:07:54;;;;;;;0.40;0.30;;;;;;;24.53;41.09;95476.28;5111584;28;20610;-56
2023/07/28 07:10:22;;;;;;;0.47;0.30;;;;;;;24.98;40.74;95470.28;5112363;28;20432;-57
2023/07/28 07:12:51;;;;;;;0.40;0.30;;;;;;;25.03;39.85;95470.78;5112380;28;20438;-57
2023/07/28 07:15:20;;;;;;;0.40;0.30;;;;;;;25.59;38.21;95462.19;5112415;28;20494;-57
2023/07/28 07:17:49;;;;;;;0.60;0.50;;;;;;;25.61;39.08;95462.59;5112028;28;20496;-57
2023/07/28 07:20:17;;;;;;;1.23;0.77;;;;;;;24.50;37.85;95392.97;5103949;28;20443;-58
2023/07/28 07:22:46;;;;;;;0.60;0.50;;;;;;;25.16;37.76;95471.41;5112144;28;20439;-60
2023/07/28 07:25:14;;;;;;;5.07;0.90;;;;;;;25.61;39.59;95466.09;5111685;28;20455;-56
2023/07/28 07:27:42;;;;;;;0.40;0.30;;;;;;;25.97;36.42;95464.78;5111577;28;20539;-56
2023/07/28 07:30:11;;;;;;;0.50;0.50;;;;;;;25.99;36.20;95465.19;5111325;28;20564;-52
2023/07/28 07:32:41;;;;;;;0.70;0.70;;;;;;;25.45;35.76;95454.56;5111418;28;20446;-52
2023/07/28 07:35:10;;;;;;;0.43;0.40;;;;;;;25.98;36.49;95455.50;5111559;28;20961;-53
2023/07/28 07:37:39;;;;;;;0.50;0.40;;;;;;;26.33;37.78;95456.06;5111668;28;20439;-53
2023/07/28 07:40:08;;;;;;;0.50;0.37;;;;;;;27.20;35.58;95454.88;5111409;28;20784;-52
2023/07/28 07:42:44;;;;;;;0.57;0.57;;;;;;;27.21;33.56;95436.63;5111774;28;20471;-52
2023/07/28 07:45:13;;;;;;;0.53;0.30;;;;;;;27.66;34.25;95441.78;5112050;28;20466;-52
2023/07/28 07:47:44;;;;;;;0.77;0.50;;;;;;;27.75;35.02;95436.81;5111659;28;20486;-52
2023/07/28 07:50:13;;;;;;;0.87;0.50;;;;;;;27.47;33.55;95410.13;5111396;28;20925;-52
2023/07/28 07:52:41;;;;;;;0.37;0.30;;;;;;;28.28;33.21;95426.38;5101529;28;20532;-53
2023/07/28 07:55:12;;;;;;;0.40;0.30;;;;;;;28.48;32.14;95429.59;5112671;28;20471;-53
2023/07/28 07:57:40;;;;;;;0.50;0.40;;;;;;;28.05;31.02;95431.25;5115886;28;20445;-53
2023/07/28 08:00:10;;;;;;;0.47;0.40;;;;;;;28.42;32.08;95437.34;5115803;28;20457;-54
2023/07/28 08:02:39;;;;;;;0.50;0.30;;;;;;;28.01;31.51;95438.59;5115474;28;20479;-53
2023/07/28 08:05:11;;;;;;;0.40;0.30;;;;;;;28.48;32.74;95419.47;5115186;28;20454;-54
2023/07/28 08:07:40;;;;;;;0.40;0.30;;;;;;;28.55;32.90;95419.50;5115635;28;20493;-52
2023/07/28 08:10:09;;;;;;;0.60;0.40;;;;;;;29.06;30.69;95415.88;5089298;28;20481;-53
2023/07/28 08:12:37;;;;;;;0.60;0.60;;;;;;;29.02;29.49;95415.09;5114728;28;20446;-53
2023/07/28 08:15:06;;;;;;;0.40;0.30;;;;;;;28.91;29.80;95417.78;5115426;28;20831;-53
2023/07/28 08:17:35;;;;;;;0.40;0.30;;;;;;;29.18;28.73;95424.50;5115260;28;20442;-53
2023/07/28 08:20:03;;;;;;;0.37;0.30;;;;;;;29.76;29.25;95416.03;5115067;28;20518;-53
2023/07/28 08:22:33;;;;;;;0.43;0.40;;;;;;;29.40;30.16;95426.13;5115125;28;20564;-53
2023/07/28 08:25:02;;;;;;;2.87;0.37;;;;;;;28.99;31.46;95404.94;5115337;28;20436;-53
2023/07/28 08:27:30;;;;;;;0.40;0.40;;;;;;;28.74;29.57;95400.16;5115161;28;20812;-53
2023/07/28 08:29:58;;;;;;;0.50;0.30;;;;;;;29.44;31.65;95401.56;5115360;28;20809;-53
2023/07/28 08:32:27;;;;;;;1.00;0.50;;;;;;;29.61;29.89;95410.94;5115387;28;20889;-59
2023/07/28 08:34:56;;;;;;;0.60;0.40;;;;;;;29.15;29.73;95274.34;5115167;28;20439;-60
2023/07/28 08:37:24;;;;;;;0.90;0.80;;;;;;;28.77;29.65;95399.38;5114694;28;20444;-58
2023/07/28 08:39:54;;;;;;;0.67;0.67;;;;;;;29.69;28.89;95387.94;5115123;28;20489;-58
2023/07/28 08:42:23;;;;;;;0.50;0.40;;;;;;;29.70;28.72;95379.38;5114188;27;20439;-59
2023/07/28 08:44:52;;;;;;;0.90;0.90;;;;;;;29.85;29.23;95383.69;5114910;28;20431;-58
2023/07/28 08:47:21;;;;;;;0.40;0.30;;;;;;;29.24;28.82;95364.88;5114151;28;20551;-58
2023/07/28 08:49:49;;;;;;;0.83;0.83;;;;;;;29.61;29.71;95376.22;5114173;28;20497;-59
2023/07/28 08:52:18;;;;;;;0.40;0.30;;;;;;;29.04;29.07;95314.50;5114028;28;20431;-58
2023/07/28 08:54:47;;;;;;;0.60;0.60;;;;;;;30.02;31.46;95380.16;5114963;28;20432;-57
2023/07/28 08:57:19;;;;;;;0.50;0.37;;;;;;;30.14;28.54;95368.03;5114842;28;20498;-58
2023/07/28 08:59:48;;;;;;;0.40;0.30;;;;;;;30.25;28.86;95366.06;5101196;28;20443;-58
2023/07/28 09:02:18;;;;;;;0.40;0.30;;;;;;;30.79;29.58;95356.53;5115121;28;20439;-59
2023/07/28 09:04:46;;;;;;;0.40;0.30;;;;;;;31.34;28.19;95353.94;5108808;28;20432;-59
2023/07/28 09:07:15;;;;;;;0.50;0.50;;;;;;;31.42;28.74;95358.94;5114114;28;20443;-60
2023/07/28 09:09:44;;;;;;;0.63;0.63;;;;;;;30.36;28.73;95355.16;5114035;28;21119;-61
2023/07/28 09:12:12;;;;;;;0.50;0.43;;;;;;;31.71;27.67;95353.28;5113799;28;20478;-61
2023/07/28 09:14:43;;;;;;;4.83;0.63;;;;;;;31.14;27.18;95347.41;5113846;28;20439;-61
2023/07/28 09:17:12;;;;;;;0.50;0.50;;;;;;;31.78;26.91;95342.28;5113492;28;20439;-61
2023/07/28 09:19:53;;;;;;;0.60;0.50;;;;;;;31.80;27.60;95335.19;5113824;28;20439;-61
2023/07/28 09:22:22;;;;;;;3.20;0.70;;;;;;;29.87;27.86;95170.94;5114150;28;20945;-62
2023/07/28 09:24:52;;;;;;;0.60;0.60;;;;;;;30.56;27.95;95345.31;5113375;28;20920;-62
2023/07/28 09:27:21;;;;;;;0.60;0.57;;;;;;;30.61;28.27;95339.44;5113976;28;20439;-62
2023/07/28 09:29:52;;;;;;;0.40;0.30;;;;;;;31.28;27.10;95331.66;5114473;28;20514;-62
2023/07/28 09:32:30;;;;;;;0.57;0.50;;;;;;;31.20;28.39;95327.41;5113780;28;20439;-62
2023/07/28 09:35:10;;;;;;;0.50;0.50;;;;;;;30.59;28.19;95328.88;5114178;28;20830;-62
2023/07/28 09:37:40;;;;;;;0.40;0.30;;;;;;;31.98;29.06;95289.25;5089887;28;20495;-63
2023/07/28 09:40:14;;;;;;;3.40;0.60;;;;;;;31.54;27.31;95326.81;5113871;28;20439;-55
2023/07/28 09:42:44;;;;;;;0.40;0.40;;;;;;;30.03;29.34;95313.38;5114147;28;20443;-55
2023/07/28 09:45:14;;;;;;;0.63;0.63;;;;;;;31.17;28.39;95317.25;5113413;28;20445;-55
2023/07/28 09:48:03;;;;;;;0.40;0.30;;;;;;;32.48;27.86;95311.44;5113661;28;20463;-54
2023/07/28 09:50:34;;;;;;;0.47;0.47;;;;;;;32.23;26.97;95308.16;5113526;28;20446;-55
2023/07/28 09:53:04;;;;;;;0.50;0.40;;;;;;;31.65;26.01;95297.38;5113641;28;20496;-54
2023/07/28 09:55:34;;;;;;;0.50;0.37;;;;;;;32.20;25.98;95300.78;5113677;28;20435;-55
2023/07/28 09:58:06;;;;;;;0.40;0.30;;;;;;;32.73;27.79;95288.41;5113510;28;20449;-55
2023/07/28 10:00:37;;;;;;;0.60;0.50;;;;;;;33.29;26.11;95287.66;5113611;28;20443;-54
2023/07/28 10:03:05;;;;;;;0.70;0.40;;;;;;;33.00;26.03;95280.97;5113164;28;20530;-53
2023/07/28 10:05:35;;;;;;;0.50;0.30;;;;;;;33.39;28.26;95281.22;5113253;28;21592;-55
2023/07/28 10:08:05;;;;;;;0.70;0.70;;;;;;;33.53;26.62;95278.22;5112936;28;20515;-52
2023/07/28 10:10:34;;;;;;;0.50;0.40;;;;;;;34.28;25.92;95270.25;5113484;28;20474;-53
2023/07/28 10:13:04;;;;;;;0.40;0.30;;;;;;;34.46;26.05;95265.16;5113034;27;21039;-54
2023/07/28 10:15:33;;;;;;;0.50;0.50;;;;;;;33.27;26.06;95237.06;5113027;28;20450;-54
2023/07/28 10:18:03;;;;;;;0.40;0.40;;;;;;;33.58;26.88;95261.28;5098483;28;20813;-54
2023/07/28 10:20:35;;;;;;;0.40;0.40;;;;;;;34.06;26.08;95260.06;5113266;28;20447;-54
2023/07/28 10:23:06;;;;;;;0.77;0.50;;;;;;;34.61;27.09;95237.41;5087319;28;20446;-54
2023/07/28 10:25:36;;;;;;;1.23;0.30;;;;;;;34.92;26.13;95255.97;5112795;28;20970;-54
2023/07/28 10:28:05;;;;;;;0.50;0.40;;;;;;;34.49;26.41;95242.31;5113142;28;20442;-54
2023/07/28 10:30:39;;;;;;;0.50;0.50;;;;;;;33.25;26.82;95238.25;5112516;28;20556;-54
2023/07/28 10:33:27;;;;;;;0.50;0.50;;;;;;;33.29;27.08;95235.44;5112728;28;20521;-54
2023/07/28 10:35:55;;;;;;;0.50;0.30;;;;;;;34.38;27.35;95224.47;5099482;28;20513;-54
2023/07/28 10:38:32;;;;;;;0.53;0.40;;;;;;;34.56;25.99;95224.13;5112684;28;20446;-53
2023/07/28 10:41:22;;;;;;;0.40;0.30;;;;;;;35.20;25.04;95223.47;5113206;28;20496;-53
2023/07/28 10:43:50;;;;;;;4.50;0.47;;;;;;;35.33;25.63;95207.81;5106463;28;20533;-53
2023/07/28 10:46:21;;;;;;;0.43;0.43;;;;;;;35.66;27.40;95201.84;5112410;28;20435;-53
2023/07/28 10:48:51;;;;;;;1.27;0.30;;;;;;;34.65;26.72;95203.06;5111867;28;20463;-53
2023/07/28 10:51:24;;;;;;;0.63;0.50;;;;;;;34.73;26.50;95203.69;5099551;28;20463;-53
2023/07/28 10:53:57;;;;;;;0.47;0.43;;;;;;;34.84;26.83;95207.75;5087267;28;20451;-53
2023/07/28 10:56:26;;;;;;;0.40;0.30;;;;;;;35.99;25.72;95207.28;5112039;28;20441;-52
2023/07/28 10:58:58;;;;;;;0.70;0.70;;;;;;;35.26;26.05;95200.50;5112648;28;20442;-52
2023/07/28 11:01:33;;;;;;;0.30;0.30;;;;;;;35.68;26.03;95195.91;5112406;28;20507;-52
2023/07/28 11:04:13;;;;;;;0.30;0.30;;;;;;;36.42;26.06;95196.63;5112742;28;20499;-59
2023/07/28 11:06:43;;;;;;;0.60;0.50;;;;;;;34.92;26.37;95208.34;5112184;28;20197;-56
2023/07/28 11:09:12;;;;;;;0.80;0.40;;;;;;;33.62;27.47;95196.06;5112359;28;20679;-56
2023/07/28 11:11:41;;;;;;;0.50;0.30;;;;;;;34.91;28.26;95196.59;5086264;28;20443;-57
2023/07/28 11:14:16;;;;;;;0.40;0.30;;;;;;;35.54;27.16;95190.75;5112330;28;20658;-55
2023/07/28 11:16:47;;;;;;;0.60;0.43;;;;;;;35.05;27.17;95182.50;5106770;28;20835;-55
2023/07/28 11:19:24;;;;;;;0.50;0.50;;;;;;;35.16;28.92;95178.69;5108419;28;20225;-55
2023/07/28 11:21:55;;;;;;;0.40;0.30;;;;;;;35.37;27.74;95180.94;5103459;28;20495;-55
2023/07/28 11:24:23;;;;;;;0.50;0.40;;;;;;;36.00;27.87;95181.28;5112046;28;20431;-55
2023/07/28 11:26:53;;;;;;;0.40;0.30;;;;;;;36.00;25.60;95179.28;5112268;28;20203;-55
2023/07/28 11:29:21;;;;;;;0.30;0.20;;;;;;;35.01;26.29;95170.75;5111161;28;20471;-55
2023/07/28 11:31:51;;;;;;;0.40;0.40;;;;;;;35.87;25.50;95167.44;5111901;28;20454;-55
2023/07/28 11:34:22;;;;;;;0.50;0.50;;;;;;;35.84;26.02;95162.78;5112212;28;20447;-56
2023/07/28 11:36:50;;;;;;;0.47;0.40;;;;;;;35.56;26.04;95158.00;5111414;28;20506;-56
2023/07/28 11:39:21;;;;;;;0.40;0.37;;;;;;;35.39;25.31;95159.22;5111371;28;20232;-56
2023/07/28 11:41:53;;;;;;;0.30;0.30;;;;;;;35.19;25.37;95155.81;5111036;28;20224;-56
2023/07/28 11:44:22;;;;;;;0.37;0.33;;;;;;;35.75;26.04;95154.34;5111733;28;20203;-56